sensor_id;sensor_type;location;lat;lon;timestamp;P1;durP1;ratioP1;P2;durP2;ratioP2
32292;SDS011;43233;48.608;8.838;2022-09-24T00:00:58;5.90;;;5.33;;
32292;SDS011;43233;48.608;8.838;2022-09-24T00:03:39;6.10;;;5.50;;
32292;SDS011;43233;48.608;8.838;2022-09-24T00:06:05;8.60;;;6.10;;
32292;SDS011;43233;48.608;8.838;2022-09-24T00:08:32;5.93;;;5.33;;
32292;SDS011;43233;48.608;8.838;2022-09-24T00:11:00;6.07;;;5.50;;
32292;SDS011;43233;48.608;8.838;2022-09-24T00:13:28;6.23;;;5.23;;
32292;SDS011;43233;48.608;8.838;2022-09-24T00:15:54;8.43;;;5.87;;
32292;SDS011;43233;48.608;8.838;2022-09-24T00:18:20;5.73;;;5.13;;
32292;SDS011;43233;48.608;8.838;2022-09-24T00:20:46;5.80;;;5.30;;
32292;SDS011;43233;48.608;8.838;2022-09-24T00:23:12;9.40;;;5.60;;
32292;SDS011;43233;48.608;8.838;2022-09-24T00:25:41;6.43;;;4.53;;
32292;SDS011;43233;48.608;8.838;2022-09-24T00:28:26;11.83;;;6.10;;
32292;SDS011;43233;48.608;8.838;2022-09-24T00:30:52;6.13;;;5.53;;
32292;SDS011;43233;48.608;8.838;2022-09-24T00:33:18;5.50;;;5.00;;
32292;SDS011;43233;48.608;8.838;2022-09-24T00:35:45;6.00;;;5.40;;
32292;SDS011;43233;48.608;8.838;2022-09-24T00:38:10;5.57;;;4.97;;
32292;SDS011;43233;48.608;8.838;2022-09-24T00:40:36;7.73;;;5.37;;
32292;SDS011;43233;48.608;8.838;2022-09-24T00:45:52;5.77;;;5.23;;
32292;SDS011;43233;48.608;8.838;2022-09-24T00:48:21;6.57;;;5.53;;
32292;SDS011;43233;48.608;8.838;2022-09-24T00:50:47;5.40;;;4.90;;
32292;SDS011;43233;48.608;8.838;2022-09-24T00:53:14;6.30;;;5.10;;
32292;SDS011;43233;48.608;8.838;2022-09-24T00:55:43;6.00;;;4.67;;
32292;SDS011;43233;48.608;8.838;2022-09-24T00:58:11;5.13;;;4.63;;
32292;SDS011;43233;48.608;8.838;2022-09-24T01:00:39;4.90;;;4.50;;
32292;SDS011;43233;48.608;8.838;2022-09-24T01:03:19;5.50;;;4.73;;
32292;SDS011;43233;48.608;8.838;2022-09-24T01:05:47;6.43;;;5.80;;
32292;SDS011;43233;48.608;8.838;2022-09-24T01:08:13;6.23;;;5.33;;
32292;SDS011;43233;48.608;8.838;2022-09-24T01:21:43;8.80;;;5.37;;
32292;SDS011;43233;48.608;8.838;2022-09-24T01:27:21;6.07;;;5.47;;
32292;SDS011;43233;48.608;8.838;2022-09-24T01:30:10;10.03;;;5.20;;
32292;SDS011;43233;48.608;8.838;2022-09-24T01:32:40;8.30;;;5.57;;
32292;SDS011;43233;48.608;8.838;2022-09-24T01:35:23;7.20;;;5.43;;
32292;SDS011;43233;48.608;8.838;2022-09-24T01:38:03;6.77;;;5.67;;
32292;SDS011;43233;48.608;8.838;2022-09-24T01:40:33;5.53;;;5.00;;
32292;SDS011;43233;48.608;8.838;2022-09-24T01:43:01;6.37;;;5.70;;
32292;SDS011;43233;48.608;8.838;2022-09-24T01:45:29;8.17;;;5.73;;
32292;SDS011;43233;48.608;8.838;2022-09-24T01:48:00;13.87;;;6.97;;
32292;SDS011;43233;48.608;8.838;2022-09-24T01:50:28;5.50;;;4.90;;
32292;SDS011;43233;48.608;8.838;2022-09-24T01:53:05;10.13;;;5.87;;
32292;SDS011;43233;48.608;8.838;2022-09-24T01:55:36;9.03;;;6.23;;
32292;SDS011;43233;48.608;8.838;2022-09-24T01:58:44;7.50;;;6.40;;
32292;SDS011;43233;48.608;8.838;2022-09-24T02:01:06;7.20;;;6.17;;
32292;SDS011;43233;48.608;8.838;2022-09-24T02:03:35;7.60;;;6.00;;
32292;SDS011;43233;48.608;8.838;2022-09-24T02:06:17;6.87;;;6.27;;
32292;SDS011;43233;48.608;8.838;2022-09-24T02:08:48;7.23;;;6.40;;
32292;SDS011;43233;48.608;8.838;2022-09-24T02:11:15;8.20;;;6.77;;
32292;SDS011;43233;48.608;8.838;2022-09-24T02:16:15;6.10;;;5.50;;
32292;SDS011;43233;48.608;8.838;2022-09-24T02:18:46;9.03;;;6.43;;
32292;SDS011;43233;48.608;8.838;2022-09-24T02:21:16;5.23;;;4.80;;
32292;SDS011;43233;48.608;8.838;2022-09-24T02:23:48;9.87;;;7.30;;
32292;SDS011;43233;48.608;8.838;2022-09-24T02:26:19;8.00;;;7.20;;
32292;SDS011;43233;48.608;8.838;2022-09-24T02:28:45;17.20;;;7.97;;
32292;SDS011;43233;48.608;8.838;2022-09-24T02:31:12;13.50;;;8.63;;
32292;SDS011;43233;48.608;8.838;2022-09-24T02:33:41;8.70;;;7.50;;
32292;SDS011;43233;48.608;8.838;2022-09-24T02:36:29;12.23;;;8.40;;
32292;SDS011;43233;48.608;8.838;2022-09-24T02:38:55;11.93;;;8.90;;
32292;SDS011;43233;48.608;8.838;2022-09-24T02:41:21;9.60;;;8.63;;
32292;SDS011;43233;48.608;8.838;2022-09-24T02:43:48;15.63;;;8.67;;
32292;SDS011;43233;48.608;8.838;2022-09-24T02:46:15;14.53;;;9.53;;
32292;SDS011;43233;48.608;8.838;2022-09-24T02:48:41;9.83;;;8.77;;
32292;SDS011;43233;48.608;8.838;2022-09-24T02:51:06;10.27;;;8.03;;
32292;SDS011;43233;48.608;8.838;2022-09-24T02:53:32;11.93;;;8.70;;
32292;SDS011;43233;48.608;8.838;2022-09-24T02:55:58;14.93;;;8.60;;
32292;SDS011;43233;48.608;8.838;2022-09-24T02:58:25;11.80;;;8.70;;
32292;SDS011;43233;48.608;8.838;2022-09-24T03:00:52;8.70;;;7.80;;
32292;SDS011;43233;48.608;8.838;2022-09-24T03:03:19;8.20;;;7.30;;
32292;SDS011;43233;48.608;8.838;2022-09-24T03:05:48;9.30;;;7.17;;
32292;SDS011;43233;48.608;8.838;2022-09-24T03:08:17;8.20;;;7.40;;
32292;SDS011;43233;48.608;8.838;2022-09-24T03:10:43;18.23;;;8.77;;
32292;SDS011;43233;48.608;8.838;2022-09-24T03:13:09;8.13;;;7.10;;
32292;SDS011;43233;48.608;8.838;2022-09-24T03:15:35;7.40;;;6.57;;
32292;SDS011;43233;48.608;8.838;2022-09-24T03:18:00;8.53;;;7.63;;
32292;SDS011;43233;48.608;8.838;2022-09-24T03:20:27;7.73;;;6.80;;
32292;SDS011;43233;48.608;8.838;2022-09-24T03:22:53;10.37;;;6.90;;
32292;SDS011;43233;48.608;8.838;2022-09-24T03:25:18;8.27;;;7.47;;
32292;SDS011;43233;48.608;8.838;2022-09-24T03:27:45;9.03;;;6.80;;
32292;SDS011;43233;48.608;8.838;2022-09-24T03:30:11;7.27;;;6.53;;
32292;SDS011;43233;48.608;8.838;2022-09-24T03:32:55;7.50;;;6.50;;
32292;SDS011;43233;48.608;8.838;2022-09-24T03:35:21;6.90;;;6.20;;
32292;SDS011;43233;48.608;8.838;2022-09-24T03:37:46;7.27;;;6.53;;
32292;SDS011;43233;48.608;8.838;2022-09-24T03:40:12;11.63;;;7.47;;
32292;SDS011;43233;48.608;8.838;2022-09-24T03:42:38;7.73;;;6.70;;
32292;SDS011;43233;48.608;8.838;2022-09-24T03:45:04;7.60;;;6.80;;
32292;SDS011;43233;48.608;8.838;2022-09-24T03:47:30;7.97;;;6.80;;
32292;SDS011;43233;48.608;8.838;2022-09-24T03:49:56;8.67;;;5.87;;
32292;SDS011;43233;48.608;8.838;2022-09-24T03:52:22;7.77;;;7.07;;
32292;SDS011;43233;48.608;8.838;2022-09-24T03:54:48;9.50;;;7.40;;
32292;SDS011;43233;48.608;8.838;2022-09-24T03:57:14;9.43;;;6.67;;
32292;SDS011;43233;48.608;8.838;2022-09-24T03:59:40;8.47;;;6.37;;
32292;SDS011;43233;48.608;8.838;2022-09-24T04:02:07;7.90;;;6.83;;
32292;SDS011;43233;48.608;8.838;2022-09-24T04:04:33;9.63;;;7.57;;
32292;SDS011;43233;48.608;8.838;2022-09-24T04:06:58;8.67;;;7.80;;
32292;SDS011;43233;48.608;8.838;2022-09-24T04:09:24;8.60;;;7.67;;
32292;SDS011;43233;48.608;8.838;2022-09-24T04:11:49;10.43;;;8.17;;
32292;SDS011;43233;48.608;8.838;2022-09-24T04:14:16;11.00;;;8.50;;
32292;SDS011;43233;48.608;8.838;2022-09-24T04:16:42;9.10;;;8.00;;
32292;SDS011;43233;48.608;8.838;2022-09-24T04:19:09;8.77;;;7.87;;
32292;SDS011;43233;48.608;8.838;2022-09-24T04:21:35;10.37;;;8.10;;
32292;SDS011;43233;48.608;8.838;2022-09-24T04:24:02;9.30;;;8.30;;
32292;SDS011;43233;48.608;8.838;2022-09-24T04:26:28;8.63;;;7.77;;
32292;SDS011;43233;48.608;8.838;2022-09-24T04:28:53;8.63;;;6.53;;
32292;SDS011;43233;48.608;8.838;2022-09-24T04:31:19;7.03;;;6.33;;
32292;SDS011;43233;48.608;8.838;2022-09-24T04:33:45;11.80;;;8.23;;
32292;SDS011;43233;48.608;8.838;2022-09-24T04:36:10;10.17;;;7.73;;
32292;SDS011;43233;48.608;8.838;2022-09-24T04:38:36;10.70;;;8.77;;
32292;SDS011;43233;48.608;8.838;2022-09-24T04:41:05;8.07;;;7.20;;
32292;SDS011;43233;48.608;8.838;2022-09-24T04:43:32;10.70;;;8.60;;
32292;SDS011;43233;48.608;8.838;2022-09-24T04:45:58;9.53;;;7.50;;
32292;SDS011;43233;48.608;8.838;2022-09-24T04:48:24;8.40;;;7.40;;
32292;SDS011;43233;48.608;8.838;2022-09-24T04:50:50;9.90;;;7.80;;
32292;SDS011;43233;48.608;8.838;2022-09-24T04:53:15;10.53;;;9.03;;
32292;SDS011;43233;48.608;8.838;2022-09-24T04:55:41;9.93;;;8.80;;
32292;SDS011;43233;48.608;8.838;2022-09-24T04:58:06;9.33;;;8.23;;
32292;SDS011;43233;48.608;8.838;2022-09-24T05:00:33;7.87;;;7.07;;
32292;SDS011;43233;48.608;8.838;2022-09-24T05:02:59;9.03;;;8.03;;
32292;SDS011;43233;48.608;8.838;2022-09-24T05:05:29;8.20;;;7.10;;
32292;SDS011;43233;48.608;8.838;2022-09-24T05:07:56;9.43;;;6.93;;
32292;SDS011;43233;48.608;8.838;2022-09-24T05:10:23;7.63;;;6.80;;
32292;SDS011;43233;48.608;8.838;2022-09-24T05:12:50;11.20;;;7.73;;
32292;SDS011;43233;48.608;8.838;2022-09-24T05:15:15;8.60;;;7.80;;
32292;SDS011;43233;48.608;8.838;2022-09-24T05:17:43;10.23;;;7.67;;
32292;SDS011;43233;48.608;8.838;2022-09-24T05:20:09;8.17;;;7.37;;
32292;SDS011;43233;48.608;8.838;2022-09-24T05:22:39;9.10;;;8.13;;
32292;SDS011;43233;48.608;8.838;2022-09-24T05:25:05;12.60;;;8.83;;
32292;SDS011;43233;48.608;8.838;2022-09-24T05:27:31;9.63;;;7.67;;
32292;SDS011;43233;48.608;8.838;2022-09-24T05:29:57;8.40;;;7.50;;
32292;SDS011;43233;48.608;8.838;2022-09-24T05:32:23;9.57;;;8.57;;
32292;SDS011;43233;48.608;8.838;2022-09-24T05:34:49;11.43;;;8.23;;
32292;SDS011;43233;48.608;8.838;2022-09-24T05:37:15;8.33;;;7.27;;
32292;SDS011;43233;48.608;8.838;2022-09-24T05:39:40;8.40;;;7.60;;
32292;SDS011;43233;48.608;8.838;2022-09-24T05:42:08;11.90;;;8.33;;
32292;SDS011;43233;48.608;8.838;2022-09-24T05:44:35;9.63;;;7.47;;
32292;SDS011;43233;48.608;8.838;2022-09-24T05:47:01;7.97;;;7.20;;
32292;SDS011;43233;48.608;8.838;2022-09-24T05:49:27;10.30;;;8.00;;
32292;SDS011;43233;48.608;8.838;2022-09-24T05:51:52;7.47;;;6.67;;
32292;SDS011;43233;48.608;8.838;2022-09-24T05:54:18;7.27;;;6.50;;
32292;SDS011;43233;48.608;8.838;2022-09-24T05:56:44;9.70;;;8.70;;
32292;SDS011;43233;48.608;8.838;2022-09-24T05:59:09;11.10;;;8.40;;
32292;SDS011;43233;48.608;8.838;2022-09-24T06:01:35;10.60;;;8.90;;
32292;SDS011;43233;48.608;8.838;2022-09-24T06:04:01;13.07;;;8.80;;
32292;SDS011;43233;48.608;8.838;2022-09-24T06:06:27;9.53;;;8.33;;
32292;SDS011;43233;48.608;8.838;2022-09-24T06:08:53;9.03;;;7.93;;
32292;SDS011;43233;48.608;8.838;2022-09-24T06:11:19;12.03;;;8.00;;
32292;SDS011;43233;48.608;8.838;2022-09-24T06:13:46;12.90;;;10.57;;
32292;SDS011;43233;48.608;8.838;2022-09-24T06:16:15;11.90;;;9.13;;
32292;SDS011;43233;48.608;8.838;2022-09-24T06:18:42;8.77;;;7.87;;
32292;SDS011;43233;48.608;8.838;2022-09-24T06:21:12;10.70;;;8.47;;
32292;SDS011;43233;48.608;8.838;2022-09-24T06:23:39;9.70;;;7.50;;
32292;SDS011;43233;48.608;8.838;2022-09-24T06:26:06;10.10;;;7.80;;
32292;SDS011;43233;48.608;8.838;2022-09-24T06:28:33;10.30;;;7.10;;
32292;SDS011;43233;48.608;8.838;2022-09-24T06:31:00;12.07;;;9.50;;
32292;SDS011;43233;48.608;8.838;2022-09-24T06:33:26;11.37;;;9.23;;
32292;SDS011;43233;48.608;8.838;2022-09-24T06:35:52;12.13;;;9.30;;
32292;SDS011;43233;48.608;8.838;2022-09-24T06:38:18;8.57;;;7.47;;
32292;SDS011;43233;48.608;8.838;2022-09-24T06:40:44;9.23;;;8.30;;
32292;SDS011;43233;48.608;8.838;2022-09-24T06:43:12;9.50;;;8.27;;
32292;SDS011;43233;48.608;8.838;2022-09-24T06:45:39;11.33;;;8.37;;
32292;SDS011;43233;48.608;8.838;2022-09-24T06:48:07;10.47;;;9.37;;
32292;SDS011;43233;48.608;8.838;2022-09-24T06:50:38;10.07;;;7.27;;
32292;SDS011;43233;48.608;8.838;2022-09-24T06:53:06;8.37;;;7.57;;
32292;SDS011;43233;48.608;8.838;2022-09-24T06:55:35;7.93;;;7.20;;
32292;SDS011;43233;48.608;8.838;2022-09-24T06:58:06;7.93;;;6.43;;
32292;SDS011;43233;48.608;8.838;2022-09-24T07:00:33;8.30;;;7.50;;
32292;SDS011;43233;48.608;8.838;2022-09-24T07:02:59;7.80;;;7.00;;
32292;SDS011;43233;48.608;8.838;2022-09-24T07:05:25;9.33;;;8.10;;
32292;SDS011;43233;48.608;8.838;2022-09-24T07:07:51;8.40;;;7.40;;
32292;SDS011;43233;48.608;8.838;2022-09-24T07:10:17;9.03;;;7.40;;
32292;SDS011;43233;48.608;8.838;2022-09-24T07:12:42;11.83;;;8.80;;
32292;SDS011;43233;48.608;8.838;2022-09-24T07:15:08;9.83;;;8.33;;
32292;SDS011;43233;48.608;8.838;2022-09-24T07:17:35;7.37;;;6.67;;
32292;SDS011;43233;48.608;8.838;2022-09-24T07:20:01;9.30;;;8.37;;
32292;SDS011;43233;48.608;8.838;2022-09-24T07:22:28;9.00;;;7.60;;
32292;SDS011;43233;48.608;8.838;2022-09-24T07:24:54;20.03;;;10.00;;
32292;SDS011;43233;48.608;8.838;2022-09-24T07:27:19;8.20;;;7.10;;
32292;SDS011;43233;48.608;8.838;2022-09-24T07:29:46;7.87;;;6.40;;
32292;SDS011;43233;48.608;8.838;2022-09-24T07:32:13;9.30;;;7.17;;
32292;SDS011;43233;48.608;8.838;2022-09-24T07:34:40;10.13;;;8.40;;
32292;SDS011;43233;48.608;8.838;2022-09-24T07:37:05;9.57;;;8.00;;
32292;SDS011;43233;48.608;8.838;2022-09-24T07:39:31;10.80;;;8.80;;
32292;SDS011;43233;48.608;8.838;2022-09-24T07:41:57;13.47;;;7.47;;
32292;SDS011;43233;48.608;8.838;2022-09-24T07:44:25;10.37;;;8.40;;
32292;SDS011;43233;48.608;8.838;2022-09-24T07:46:52;12.20;;;7.90;;
32292;SDS011;43233;48.608;8.838;2022-09-24T07:49:19;8.83;;;7.93;;
32292;SDS011;43233;48.608;8.838;2022-09-24T07:51:45;8.63;;;7.53;;
32292;SDS011;43233;48.608;8.838;2022-09-24T07:54:11;8.73;;;7.83;;
32292;SDS011;43233;48.608;8.838;2022-09-24T07:56:37;8.67;;;7.57;;
32292;SDS011;43233;48.608;8.838;2022-09-24T07:59:03;11.00;;;8.80;;
32292;SDS011;43233;48.608;8.838;2022-09-24T08:01:35;10.47;;;8.23;;
32292;SDS011;43233;48.608;8.838;2022-09-24T08:04:01;11.70;;;9.40;;
32292;SDS011;43233;48.608;8.838;2022-09-24T08:06:29;12.40;;;8.80;;
32292;SDS011;43233;48.608;8.838;2022-09-24T08:08:58;10.27;;;8.63;;
32292;SDS011;43233;48.608;8.838;2022-09-24T08:11:24;9.93;;;8.80;;
32292;SDS011;43233;48.608;8.838;2022-09-24T08:13:50;11.93;;;9.40;;
32292;SDS011;43233;48.608;8.838;2022-09-24T08:16:15;11.43;;;8.70;;
32292;SDS011;43233;48.608;8.838;2022-09-24T08:18:41;11.70;;;8.03;;
32292;SDS011;43233;48.608;8.838;2022-09-24T08:21:08;13.60;;;10.07;;
32292;SDS011;43233;48.608;8.838;2022-09-24T08:23:36;13.10;;;10.40;;
32292;SDS011;43233;48.608;8.838;2022-09-24T08:26:03;12.33;;;9.03;;
32292;SDS011;43233;48.608;8.838;2022-09-24T08:28:29;10.67;;;8.07;;
32292;SDS011;43233;48.608;8.838;2022-09-24T08:30:58;14.67;;;10.80;;
32292;SDS011;43233;48.608;8.838;2022-09-24T08:33:27;13.60;;;9.70;;
32292;SDS011;43233;48.608;8.838;2022-09-24T08:35:57;26.00;;;15.40;;
32292;SDS011;43233;48.608;8.838;2022-09-24T08:38:23;29.50;;;16.90;;
32292;SDS011;43233;48.608;8.838;2022-09-24T08:41:04;26.50;;;15.00;;
32292;SDS011;43233;48.608;8.838;2022-09-24T08:43:42;42.53;;;19.40;;
32292;SDS011;43233;48.608;8.838;2022-09-24T08:46:35;25.17;;;12.50;;
32292;SDS011;43233;48.608;8.838;2022-09-24T08:49:36;11.97;;;9.87;;
32292;SDS011;43233;48.608;8.838;2022-09-24T08:55:13;9.43;;;8.43;;
32292;SDS011;43233;48.608;8.838;2022-09-24T08:58:11;10.10;;;8.47;;
32292;SDS011;43233;48.608;8.838;2022-09-24T09:01:20;12.83;;;10.53;;
32292;SDS011;43233;48.608;8.838;2022-09-24T09:11:27;10.00;;;8.90;;
32292;SDS011;43233;48.608;8.838;2022-09-24T09:13:59;14.33;;;9.40;;
32292;SDS011;43233;48.608;8.838;2022-09-24T09:16:34;11.73;;;10.43;;
32292;SDS011;43233;48.608;8.838;2022-09-24T09:19:08;12.33;;;10.10;;
32292;SDS011;43233;48.608;8.838;2022-09-24T09:21:38;10.53;;;9.10;;
32292;SDS011;43233;48.608;8.838;2022-09-24T09:24:19;10.10;;;8.80;;
32292;SDS011;43233;48.608;8.838;2022-09-24T09:26:51;10.60;;;9.47;;
32292;SDS011;43233;48.608;8.838;2022-09-24T09:29:20;14.00;;;8.97;;
32292;SDS011;43233;48.608;8.838;2022-09-24T09:42:03;13.73;;;9.93;;
32292;SDS011;43233;48.608;8.838;2022-09-24T09:44:38;12.30;;;9.43;;
32292;SDS011;43233;48.608;8.838;2022-09-24T09:49:36;10.27;;;9.10;;
32292;SDS011;43233;48.608;8.838;2022-09-24T09:52:12;12.50;;;8.70;;
32292;SDS011;43233;48.608;8.838;2022-09-24T09:54:41;10.03;;;8.90;;
32292;SDS011;43233;48.608;8.838;2022-09-24T09:57:11;11.00;;;9.80;;
32292;SDS011;43233;48.608;8.838;2022-09-24T09:59:40;9.50;;;8.30;;
32292;SDS011;43233;48.608;8.838;2022-09-24T10:02:13;16.53;;;9.10;;
32292;SDS011;43233;48.608;8.838;2022-09-24T10:04:47;13.33;;;8.50;;
32292;SDS011;43233;48.608;8.838;2022-09-24T10:07:19;14.23;;;9.90;;
32292;SDS011;43233;48.608;8.838;2022-09-24T10:09:44;13.70;;;9.20;;
32292;SDS011;43233;48.608;8.838;2022-09-24T10:14:59;13.20;;;8.97;;
32292;SDS011;43233;48.608;8.838;2022-09-24T10:17:28;11.93;;;9.70;;
32292;SDS011;43233;48.608;8.838;2022-09-24T10:19:58;9.67;;;8.37;;
32292;SDS011;43233;48.608;8.838;2022-09-24T10:22:25;13.83;;;8.10;;
32292;SDS011;43233;48.608;8.838;2022-09-24T10:24:53;12.73;;;10.47;;
32292;SDS011;43233;48.608;8.838;2022-09-24T10:27:43;11.87;;;8.70;;
32292;SDS011;43233;48.608;8.838;2022-09-24T10:30:12;11.27;;;7.93;;
32292;SDS011;43233;48.608;8.838;2022-09-24T10:33:00;10.50;;;9.13;;
32292;SDS011;43233;48.608;8.838;2022-09-24T10:35:29;9.97;;;8.70;;
32292;SDS011;43233;48.608;8.838;2022-09-24T10:37:59;11.13;;;8.13;;
32292;SDS011;43233;48.608;8.838;2022-09-24T10:40:25;9.20;;;8.20;;
32292;SDS011;43233;48.608;8.838;2022-09-24T10:42:57;10.37;;;9.20;;
32292;SDS011;43233;48.608;8.838;2022-09-24T10:45:37;10.53;;;8.93;;
32292;SDS011;43233;48.608;8.838;2022-09-24T10:56:52;8.40;;;7.23;;
32292;SDS011;43233;48.608;8.838;2022-09-24T11:05:29;9.30;;;6.63;;
32292;SDS011;43233;48.608;8.838;2022-09-24T11:11:03;10.30;;;7.77;;
32292;SDS011;43233;48.608;8.838;2022-09-24T11:16:37;8.13;;;7.10;;
32292;SDS011;43233;48.608;8.838;2022-09-24T11:22:24;8.57;;;7.20;;
32292;SDS011;43233;48.608;8.838;2022-09-24T11:25:16;5.40;;;4.07;;
32292;SDS011;43233;48.608;8.838;2022-09-24T11:28:09;2.70;;;2.50;;
32292;SDS011;43233;48.608;8.838;2022-09-24T11:50:48;2.70;;;2.60;;
32292;SDS011;43233;48.608;8.838;2022-09-24T11:53:42;2.63;;;2.53;;
32292;SDS011;43233;48.608;8.838;2022-09-24T11:59:21;3.37;;;3.03;;
32292;SDS011;43233;48.608;8.838;2022-09-24T12:01:38;3.90;;;3.60;;
32292;SDS011;43233;48.608;8.838;2022-09-24T12:04:13;4.20;;;3.10;;
32292;SDS011;43233;48.608;8.838;2022-09-24T12:13:14;5.30;;;3.70;;
32292;SDS011;43233;48.608;8.838;2022-09-24T12:15:44;3.33;;;3.03;;
32292;SDS011;43233;48.608;8.838;2022-09-24T12:18:25;7.60;;;4.40;;
32292;SDS011;43233;48.608;8.838;2022-09-24T12:20:55;7.60;;;4.90;;
32292;SDS011;43233;48.608;8.838;2022-09-24T12:23:28;3.70;;;3.00;;
32292;SDS011;43233;48.608;8.838;2022-09-24T12:25:57;5.77;;;3.47;;
32292;SDS011;43233;48.608;8.838;2022-09-24T12:28:25;4.03;;;3.67;;
32292;SDS011;43233;48.608;8.838;2022-09-24T12:31:20;3.47;;;3.17;;
32292;SDS011;43233;48.608;8.838;2022-09-24T12:37:02;3.60;;;3.30;;
32292;SDS011;43233;48.608;8.838;2022-09-24T12:39:35;4.50;;;3.20;;
32292;SDS011;43233;48.608;8.838;2022-09-24T12:42:07;4.00;;;2.50;;
32292;SDS011;43233;48.608;8.838;2022-09-24T12:44:45;2.63;;;2.50;;
32292;SDS011;43233;48.608;8.838;2022-09-24T12:47:21;3.30;;;3.00;;
32292;SDS011;43233;48.608;8.838;2022-09-24T12:49:53;2.83;;;2.60;;
32292;SDS011;43233;48.608;8.838;2022-09-24T12:52:46;2.87;;;2.67;;
32292;SDS011;43233;48.608;8.838;2022-09-24T12:55:18;2.80;;;2.60;;
32292;SDS011;43233;48.608;8.838;2022-09-24T13:00:34;2.13;;;2.00;;
32292;SDS011;43233;48.608;8.838;2022-09-24T13:05:59;4.00;;;3.30;;
32292;SDS011;43233;48.608;8.838;2022-09-24T13:08:27;7.17;;;3.00;;
32292;SDS011;43233;48.608;8.838;2022-09-24T13:11:04;3.33;;;3.13;;
32292;SDS011;43233;48.608;8.838;2022-09-24T13:13:56;5.43;;;3.40;;
32292;SDS011;43233;48.608;8.838;2022-09-24T13:16:28;5.27;;;4.37;;
32292;SDS011;43233;48.608;8.838;2022-09-24T13:18:58;4.80;;;3.60;;
32292;SDS011;43233;48.608;8.838;2022-09-24T13:21:27;4.07;;;3.43;;
32292;SDS011;43233;48.608;8.838;2022-09-24T13:23:54;5.80;;;3.20;;
32292;SDS011;43233;48.608;8.838;2022-09-24T13:28:49;7.53;;;3.60;;
32292;SDS011;43233;48.608;8.838;2022-09-24T13:36:38;3.40;;;3.10;;
32292;SDS011;43233;48.608;8.838;2022-09-24T13:47:04;3.47;;;3.17;;
32292;SDS011;43233;48.608;8.838;2022-09-24T13:49:33;3.50;;;3.20;;
32292;SDS011;43233;48.608;8.838;2022-09-24T13:52:06;3.70;;;3.00;;
32292;SDS011;43233;48.608;8.838;2022-09-24T13:54:42;3.83;;;3.53;;
32292;SDS011;43233;48.608;8.838;2022-09-24T13:57:23;4.50;;;4.10;;
32292;SDS011;43233;48.608;8.838;2022-09-24T14:03:41;4.73;;;3.40;;
32292;SDS011;43233;48.608;8.838;2022-09-24T14:05:45;3.40;;;3.00;;
32292;SDS011;43233;48.608;8.838;2022-09-24T14:08:12;3.73;;;3.33;;
32292;SDS011;43233;48.608;8.838;2022-09-24T14:10:40;5.90;;;3.60;;
32292;SDS011;43233;48.608;8.838;2022-09-24T14:13:09;3.87;;;3.57;;
32292;SDS011;43233;48.608;8.838;2022-09-24T14:18:17;4.90;;;2.63;;
32292;SDS011;43233;48.608;8.838;2022-09-24T14:20:43;3.57;;;3.27;;
32292;SDS011;43233;48.608;8.838;2022-09-24T14:23:15;3.17;;;2.97;;
32292;SDS011;43233;48.608;8.838;2022-09-24T14:25:45;3.67;;;3.37;;
32292;SDS011;43233;48.608;8.838;2022-09-24T14:28:12;4.00;;;3.23;;
32292;SDS011;43233;48.608;8.838;2022-09-24T14:30:46;3.77;;;3.40;;
32292;SDS011;43233;48.608;8.838;2022-09-24T14:33:18;2.73;;;2.53;;
32292;SDS011;43233;48.608;8.838;2022-09-24T14:35:47;3.87;;;3.33;;
32292;SDS011;43233;48.608;8.838;2022-09-24T14:40:57;3.70;;;3.40;;
32292;SDS011;43233;48.608;8.838;2022-09-24T14:43:45;3.27;;;3.07;;
32292;SDS011;43233;48.608;8.838;2022-09-24T14:46:21;3.37;;;3.07;;
32292;SDS011;43233;48.608;8.838;2022-09-24T14:51:31;3.80;;;3.07;;
32292;SDS011;43233;48.608;8.838;2022-09-24T14:53:57;3.27;;;3.07;;
32292;SDS011;43233;48.608;8.838;2022-09-24T14:56:27;4.00;;;3.30;;
32292;SDS011;43233;48.608;8.838;2022-09-24T14:58:58;3.47;;;3.17;;
32292;SDS011;43233;48.608;8.838;2022-09-24T15:01:28;5.03;;;2.80;;
32292;SDS011;43233;48.608;8.838;2022-09-24T15:04:02;3.40;;;3.10;;
32292;SDS011;43233;48.608;8.838;2022-09-24T15:06:38;4.83;;;3.10;;
32292;SDS011;43233;48.608;8.838;2022-09-24T15:09:26;3.40;;;3.10;;
32292;SDS011;43233;48.608;8.838;2022-09-24T15:11:54;3.83;;;3.50;;
32292;SDS011;43233;48.608;8.838;2022-09-24T15:14:30;4.23;;;2.90;;
32292;SDS011;43233;48.608;8.838;2022-09-24T15:17:06;4.70;;;3.63;;
32292;SDS011;43233;48.608;8.838;2022-09-24T15:19:34;4.03;;;3.27;;
32292;SDS011;43233;48.608;8.838;2022-09-24T15:22:01;3.30;;;3.00;;
32292;SDS011;43233;48.608;8.838;2022-09-24T15:24:27;4.87;;;3.10;;
32292;SDS011;43233;48.608;8.838;2022-09-24T15:27:01;3.87;;;3.50;;
32292;SDS011;43233;48.608;8.838;2022-09-24T15:29:27;3.40;;;3.10;;
32292;SDS011;43233;48.608;8.838;2022-09-24T15:31:52;5.13;;;3.70;;
32292;SDS011;43233;48.608;8.838;2022-09-24T15:34:20;3.70;;;3.30;;
32292;SDS011;43233;48.608;8.838;2022-09-24T15:36:47;4.17;;;3.13;;
32292;SDS011;43233;48.608;8.838;2022-09-24T15:39:13;7.83;;;4.40;;
32292;SDS011;43233;48.608;8.838;2022-09-24T15:41:41;5.13;;;4.70;;
32292;SDS011;43233;48.608;8.838;2022-09-24T15:44:19;8.33;;;3.93;;
32292;SDS011;43233;48.608;8.838;2022-09-24T15:46:47;5.90;;;3.67;;
32292;SDS011;43233;48.608;8.838;2022-09-24T15:49:15;3.87;;;3.30;;
32292;SDS011;43233;48.608;8.838;2022-09-24T15:51:46;5.90;;;3.53;;
32292;SDS011;43233;48.608;8.838;2022-09-24T15:54:19;3.37;;;3.03;;
32292;SDS011;43233;48.608;8.838;2022-09-24T15:56:46;3.73;;;3.40;;
32292;SDS011;43233;48.608;8.838;2022-09-24T15:59:16;3.80;;;3.50;;
32292;SDS011;43233;48.608;8.838;2022-09-24T16:01:43;6.83;;;3.53;;
32292;SDS011;43233;48.608;8.838;2022-09-24T16:04:10;3.43;;;3.00;;
32292;SDS011;43233;48.608;8.838;2022-09-24T16:06:36;5.30;;;4.00;;
32292;SDS011;43233;48.608;8.838;2022-09-24T16:09:03;6.33;;;3.80;;
32292;SDS011;43233;48.608;8.838;2022-09-24T16:11:29;3.53;;;2.33;;
32292;SDS011;43233;48.608;8.838;2022-09-24T16:13:55;5.20;;;4.10;;
32292;SDS011;43233;48.608;8.838;2022-09-24T16:16:21;3.93;;;3.53;;
32292;SDS011;43233;48.608;8.838;2022-09-24T16:18:47;3.30;;;3.00;;
32292;SDS011;43233;48.608;8.838;2022-09-24T16:21:12;3.00;;;2.53;;
32292;SDS011;43233;48.608;8.838;2022-09-24T16:23:38;3.30;;;3.00;;
32292;SDS011;43233;48.608;8.838;2022-09-24T16:26:04;3.93;;;3.27;;
32292;SDS011;43233;48.608;8.838;2022-09-24T16:28:29;11.70;;;4.00;;
32292;SDS011;43233;48.608;8.838;2022-09-24T16:30:55;3.90;;;3.60;;
32292;SDS011;43233;48.608;8.838;2022-09-24T16:33:22;4.83;;;4.10;;
32292;SDS011;43233;48.608;8.838;2022-09-24T16:35:48;4.40;;;3.57;;
32292;SDS011;43233;48.608;8.838;2022-09-24T16:38:14;3.87;;;3.10;;
32292;SDS011;43233;48.608;8.838;2022-09-24T16:40:41;3.53;;;3.23;;
32292;SDS011;43233;48.608;8.838;2022-09-24T16:43:06;3.40;;;3.10;;
32292;SDS011;43233;48.608;8.838;2022-09-24T16:45:32;5.37;;;4.90;;
32292;SDS011;43233;48.608;8.838;2022-09-24T16:47:58;4.53;;;4.13;;
32292;SDS011;43233;48.608;8.838;2022-09-24T16:50:23;7.87;;;3.80;;
32292;SDS011;43233;48.608;8.838;2022-09-24T16:52:49;4.00;;;3.63;;
32292;SDS011;43233;48.608;8.838;2022-09-24T16:55:18;3.83;;;3.53;;
32292;SDS011;43233;48.608;8.838;2022-09-24T16:57:44;4.17;;;3.83;;
32292;SDS011;43233;48.608;8.838;2022-09-24T17:00:10;6.67;;;5.13;;
32292;SDS011;43233;48.608;8.838;2022-09-24T17:02:36;7.60;;;6.20;;
32292;SDS011;43233;48.608;8.838;2022-09-24T17:05:09;5.73;;;5.00;;
32292;SDS011;43233;48.608;8.838;2022-09-24T17:07:34;6.03;;;5.17;;
32292;SDS011;43233;48.608;8.838;2022-09-24T17:10:00;7.60;;;4.80;;
32292;SDS011;43233;48.608;8.838;2022-09-24T17:12:38;5.80;;;5.20;;